Latest Weather Observations for Shepparton

IDV60801

Issued at 1:32 pm EST Tuesday 28 June 2016 (issued every 30 minutes, with the page automatically refreshed every 10 minutes)

About weather observations | Map of weather stations | Latest weather observations for VIC | Other Formats
Station Details ID: 081125 Name: SHEPPARTON AIRPORT Lat: -36.43 Lon: 145.39 Height: 113.9 m
Data from the previous 72 hours. | See also: Recent months at Shepparton
Date/Time
EST
Temp
°C
App
Temp
°C
Dew
Point
°C
Rel
Hum
%
Delta-T
°C
Wind Press
QNH
hPa
Press
MSL
hPa
Rain since
9am
mm
Dir  Spd
km/h
Gust
km/h
Spd
kts
Gust
kts
28/01:30pm 7.9 7.0 7.9 100 0.0 N 2 7 1 4 1026.3 1026.6 0.0
28/01:00pm 7.4 5.5 7.4 100 0.0 NNE 7 11 4 6 1026.4 1026.7 0.0
28/12:30pm 6.7 4.6 6.7 100 0.0 N 7 11 4 6 1026.5 1026.8 0.0
28/12:01pm 6.1 3.9 6.0 99 0.0 NNW 7 13 4 7 1026.7 1027.0 0.0
28/12:00pm 6.2 4.0 6.2 100 0.0 NNW 7 13 4 7 1026.7 1027.0 0.0
28/11:30am 5.7 3.6 5.6 99 0.0 N 6 13 3 7 1027.0 1027.3 0.0
28/11:00am 5.4 2.2 5.3 99 0.0 N 11 15 6 8 1026.9 1027.2 0.0
28/10:30am 4.9 2.0 4.8 99 0.0 NNE 9 13 5 7 1026.9 1027.2 0.0
28/10:00am 4.5 1.6 4.4 99 0.0 NNE 9 11 5 6 1026.7 1027.0 0.0
28/09:30am 4.2 1.6 4.1 99 0.0 NNE 7 11 4 6 1026.8 1027.1 0.0
28/09:00am 4.1 1.5 4.0 99 0.0 NNE 7 9 4 5 1026.3 1026.6 0.2
28/08:30am 3.4 1.6 3.3 99 0.0 E 2 7 1 4 1026.0 1026.2 0.2
28/08:00am 2.6 -0.1 2.5 99 0.0 E 6 7 3 4 1025.7 1025.9 0.2
28/07:30am 2.7 1.1 2.6 99 0.0 CALM 0 0 0 0 1025.3 1025.5 0.2
28/07:00am 2.7 1.1 2.6 99 0.0 CALM 0 0 0 0 1025.0 1025.2 0.2
28/06:30am 2.9 1.4 2.8 99 0.0 CALM 0 0 0 0 1024.6 1024.8 0.2
28/06:00am 3.0 1.5 2.9 99 0.0 CALM 0 0 0 0 1024.1 1024.3 0.0
28/05:30am 3.5 2.1 3.4 99 0.0 CALM 0 0 0 0 1023.7 1023.9 0.0
28/05:00am 3.7 2.3 3.6 99 0.0 CALM 0 0 0 0 1023.5 1023.7 0.0
28/04:30am 4.0 2.7 3.9 99 0.0 CALM 0 0 0 0 1023.4 1023.6 0.0
28/04:00am 3.9 2.5 3.8 99 0.0 CALM 0 0 0 0 1023.4 1023.6 0.0
28/03:30am 3.5 1.7 3.4 99 0.0 WNW 2 11 1 6 1023.4 1023.6 0.0
28/03:00am 2.8 0.5 2.7 99 0.0 WNW 4 9 2 5 1023.2 1023.4 0.0
28/02:30am 2.6 1.0 2.5 99 0.0 CALM 0 0 0 0 1023.2 1023.4 0.0
28/02:19am 2.6 1.0 2.5 99 0.0 CALM 0 0 0 0 1023.1 1023.3 0.0
28/02:00am 2.9 1.4 2.8 99 0.0 CALM 0 0 0 0 1023.0 1023.2 0.0
28/01:30am 3.5 2.1 3.4 99 0.0 CALM 0 0 0 0 1022.7 1022.9 0.0
28/01:00am 5.4 4.3 5.3 99 0.0 CALM 0 0 0 0 1022.7 1022.9 0.0
28/12:49am 5.2 4.1 5.1 99 0.0 CALM 0 0 0 0 1022.8 1023.0 0.0
28/12:30am 5.0 3.9 4.9 99 0.0 CALM 0 0 0 0 1022.8 1023.0 0.0
28/12:00am 6.0 5.1 5.9 99 0.0 CALM 0 0 0 0 1022.6 1022.8 0.0
 
Date/Time
EST
Temp
°C
App
Temp
°C
Dew
Point
°C
Rel
Hum
%
Delta-T
°C
Wind Press
QNH
hPa
Press
MSL
hPa
Rain since
9am
mm
Dir  Spd
km/h
Gust
km/h
Spd
kts
Gust
kts
27/11:30pm 6.5 5.3 6.4 99 0.0 NW 2 7 1 4 1022.4 1022.6 0.0
27/11:00pm 7.5 5.5 7.1 97 0.2 NW 7 9 4 5 1022.2 1022.4 0.0
27/10:30pm 8.3 6.6 7.4 94 0.4 WNW 6 9 3 5 1022.2 1022.4 0.0
27/10:00pm 8.5 7.5 7.4 93 0.5 WNW 2 7 1 4 1022.1 1022.3 0.0
27/09:30pm 8.8 8.2 7.6 92 0.6 CALM 0 0 0 0 1022.0 1022.2 0.0
27/09:00pm 9.0 7.1 7.6 91 0.7 WNW 7 11 4 6 1021.7 1021.9 0.0
27/08:30pm 9.3 6.2 7.3 87 1.0 WNW 13 17 7 9 1021.5 1021.7 0.0
27/08:00pm 9.4 6.2 7.0 85 1.1 WNW 13 19 7 10 1021.2 1021.4 0.0
27/07:30pm 9.1 6.7 7.2 88 0.9 NW 9 15 5 8 1020.9 1021.1 0.0
27/07:00pm 8.9 6.9 6.9 87 0.9 NW 7 9 4 5 1020.7 1020.9 0.0
27/06:30pm 9.4 7.4 7.2 86 1.0 WNW 7 9 4 5 1020.5 1020.7 0.0
27/06:00pm 9.5 7.7 7.3 86 1.0 WNW 6 9 3 5 1020.2 1020.4 0.0
27/05:30pm 9.7 7.7 7.3 85 1.1 WNW 7 11 4 6 1019.9 1020.1 0.0
27/05:00pm 9.8 9.1 6.9 82 1.4 CALM 0 0 0 0 1019.6 1019.8 0.0
27/04:30pm 10.0 9.3 6.9 81 1.5 CALM 0 0 0 0 1019.4 1019.6 0.0
27/04:00pm 10.0 7.5 6.7 80 1.6 W 9 13 5 7 1019.1 1019.4 0.0
27/03:30pm 10.3 7.5 6.8 79 1.7 W 11 17 6 9 1018.9 1019.2 0.0
27/03:00pm 10.3 7.5 6.8 79 1.7 WNW 11 17 6 9 1018.6 1018.8 0.0
27/02:30pm 10.2 6.9 6.4 77 1.8 W 13 20 7 11 1018.4 1018.6 0.0
27/02:00pm 10.3 7.0 6.3 76 1.9 W 13 20 7 11 1018.5 1018.7 0.0
27/01:30pm 10.2 7.0 6.7 79 1.7 WNW 13 19 7 10 1018.6 1018.8 0.0
27/01:00pm 9.6 5.5 6.0 78 1.7 W 17 24 9 13 1018.7 1018.9 0.0
27/12:30pm 9.4 6.0 6.1 80 1.5 W 13 20 7 11 1018.8 1019.0 0.0
27/12:00pm 9.1 6.4 5.7 79 1.6 NW 9 13 5 7 1019.3 1019.5 0.0
27/11:30am 7.9 5.6 5.5 85 1.1 W 7 13 4 7 1019.7 1019.9 0.0
27/11:00am 7.3 5.3 4.6 83 1.2 WNW 4 9 2 5 1019.7 1019.9 0.0
27/10:30am 7.2 5.4 5.2 87 0.9 WSW 4 7 2 4 1019.8 1020.0 0.0
27/10:00am 6.6 5.1 4.9 89 0.7 WNW 2 6 1 3 1019.7 1019.9 0.0
27/09:30am 6.0 3.3 5.6 97 0.2 NNW 9 11 5 6 1019.1 1019.4 0.0
27/09:00am 4.8 2.3 4.7 99 0.0 NNW 7 9 4 5 1019.4 1019.6 0.2
27/08:30am 4.3 1.7 4.2 99 0.0 NNW 7 9 4 5 1019.3 1019.5 0.2
27/08:00am 3.9 1.4 3.8 99 0.0 N 6 7 3 4 1019.0 1019.3 0.2
27/07:30am 3.7 2.3 3.6 99 0.0 CALM 0 0 0 0 1019.0 1019.3 0.2
27/07:04am 3.6 2.2 3.5 99 0.0 CALM 0 0 0 0 1018.9 1019.2 0.2
27/07:00am 3.6 2.2 3.5 99 0.0 CALM 0 0 0 0 1018.9 1019.2 0.2
27/06:30am 3.3 1.8 3.2 99 0.0 CALM 0 0 0 0 1018.5 1018.7 0.2
27/06:25am 3.4 2.0 3.3 99 0.0 CALM 0 0 0 0 1018.5 1018.7 0.2
27/06:00am 3.4 2.0 3.3 99 0.0 CALM 0 0 0 0 1018.1 1018.3 0.2
27/05:30am 3.5 1.7 3.4 99 0.0 NNE 2 7 1 4 1018.0 1018.2 0.2
27/05:23am 3.4 0.8 3.3 99 0.0 NNE 6 9 3 5 1018.0 1018.2 0.2
27/05:22am 3.4 0.8 3.3 99 0.0 NNE 6 9 3 5 1017.9 1018.1 0.2
27/05:00am 3.4 2.0 3.3 99 0.0 CALM 0 0 0 0 1017.8 1018.0 0.2
27/04:39am 3.5 2.1 3.4 99 0.0 CALM 0 0 0 0 1017.7 1017.9 0.2
27/04:30am 3.4 2.0 3.3 99 0.0 CALM 0 0 0 0 1017.7 1017.9 0.0
27/04:13am 3.5 2.1 3.4 99 0.0 CALM 0 0 0 0 1017.8 1018.0 0.0
27/04:00am 3.6 2.2 3.5 99 0.0 CALM 0 0 0 0 1017.9 1018.1 0.0
27/03:30am 3.7 2.3 3.6 99 0.0 CALM 0 0 0 0 1017.9 1018.1 0.0
27/03:00am 3.6 2.2 3.5 99 0.0 CALM 0 0 0 0 1017.9 1018.1 0.0
27/02:30am 3.7 2.3 3.6 99 0.0 CALM 0 0 0 0 1017.8 1018.0 0.0
27/02:00am 3.5 2.1 3.4 99 0.0 CALM 0 0 0 0 1017.7 1017.9 0.0
27/01:37am 3.4 2.0 3.3 99 0.0 CALM 0 0 0 0 1017.8 1018.0 0.0
27/01:30am 3.8 2.4 3.7 99 0.0 CALM 0 6 0 3 1017.7 1017.9 0.0
27/01:26am 3.8 2.0 3.7 99 0.0 NE 2 9 1 5 1017.6 1017.8 0.0
27/01:19am 4.0 1.0 3.9 99 0.0 NE 9 11 5 6 1017.5 1017.7 0.0
27/01:00am 3.6 2.2 3.5 99 0.0 CALM 0 0 0 0 1017.7 1017.9 0.0
27/12:47am 3.6 2.2 3.5 99 0.0 CALM 0 0 0 0 1017.9 1018.1 0.0
27/12:30am 3.9 2.5 3.8 99 0.0 CALM 0 0 0 0 1018.0 1018.2 0.0
27/12:00am 4.3 3.0 4.2 99 0.0 CALM 0 0 0 0 1017.9 1018.1 0.0
 
Date/Time
EST
Temp
°C
App
Temp
°C
Dew
Point
°C
Rel
Hum
%
Delta-T
°C
Wind Press
QNH
hPa
Press
MSL
hPa
Rain since
9am
mm
Dir  Spd
km/h
Gust
km/h
Spd
kts
Gust
kts
26/11:30pm 4.2 2.9 4.1 99 0.0 CALM 0 0 0 0 1017.9 1018.1 0.0
26/11:00pm 4.3 3.0 4.2 99 0.0 CALM 0 0 0 0 1018.1 1018.3 0.0
26/10:30pm 4.3 3.0 4.2 99 0.0 CALM 0 0 0 0 1018.0 1018.2 0.0
26/10:00pm 4.6 3.4 4.5 99 0.0 CALM 0 0 0 0 1018.1 1018.3 0.0
26/09:30pm 4.8 3.2 4.7 99 0.0 ENE 2 6 1 3 1018.2 1018.4 0.0
26/09:00pm 4.8 3.6 4.7 99 0.0 CALM 0 0 0 0 1018.3 1018.5 0.0
26/08:30pm 4.9 3.7 4.8 99 0.0 CALM 0 0 0 0 1018.4 1018.6 0.0
26/08:00pm 5.0 3.9 4.9 99 0.0 CALM 0 0 0 0 1018.3 1018.5 0.0
26/07:30pm 5.3 4.2 5.0 98 0.1 CALM 0 0 0 0 1018.1 1018.3 0.0
26/07:00pm 5.7 4.6 5.3 97 0.2 CALM 0 0 0 0 1018.1 1018.3 0.0
26/06:30pm 5.9 4.8 5.3 96 0.3 CALM 0 0 0 0 1018.2 1018.4 0.0
26/06:00pm 6.0 4.2 5.3 95 0.3 NE 4 7 2 4 1018.3 1018.5 0.0
26/05:30pm 6.4 4.0 5.4 93 0.4 ENE 7 9 4 5 1018.2 1018.4 0.0
26/05:00pm 6.7 4.0 5.5 92 0.5 NE 9 11 5 6 1018.2 1018.4 0.0
26/04:30pm 7.1 4.7 5.4 89 0.8 NNE 7 9 4 5 1018.2 1018.4 0.0
26/04:00pm 7.3 4.9 5.4 88 0.8 NNE 7 11 4 6 1018.3 1018.5 0.0
26/03:35pm 7.4 5.1 5.0 85 1.1 N 6 9 3 5 1018.4 1018.6 0.0
26/03:30pm 7.3 5.0 5.0 85 1.0 N 6 9 3 5 1018.5 1018.7 0.0
26/03:05pm 7.4 5.1 5.0 85 1.1 N 6 9 3 5 1018.6 1018.8 0.0
26/03:00pm 7.5 5.3 5.3 86 1.0 N 6 13 3 7 1018.7 1018.9 0.0
26/02:30pm 7.5 5.1 5.1 85 1.1 N 7 9 4 5 1018.8 1019.0 0.0
26/02:00pm 7.4 4.2 5.0 85 1.1 NNW 11 13 6 7 1019.3 1019.5 0.0
26/01:30pm 7.5 4.0 5.3 86 1.0 N 13 17 7 9 1019.6 1019.8 0.0
26/01:00pm 7.8 4.8 5.9 88 0.9 NNE 11 15 6 8 1019.7 1019.9 0.0
26/12:30pm 6.8 4.0 5.1 89 0.8 NNE 9 13 5 7 1020.0 1020.2 0.0
26/12:00pm 6.8 3.3 5.4 91 0.6 NNE 13 19 7 10 1020.3 1020.5 0.0
26/11:30am 5.9 1.9 4.7 92 0.5 NE 15 19 8 10 1020.8 1021.0 0.0
26/11:00am 5.4 2.1 4.7 95 0.3 ENE 11 15 6 8 1020.9 1021.1 0.0
26/10:30am 4.7 1.4 4.3 97 0.2 NE 11 17 6 9 1021.4 1021.6 0.0
26/10:00am 4.4 1.8 4.3 99 0.0 NE 7 9 4 5 1022.0 1022.2 0.0
26/09:30am 3.0 0.2 2.9 99 0.0 NE 7 11 4 6 1022.3 1022.5 0.0
26/09:00am 2.4 -0.4 2.3 99 0.0 ENE 6 9 3 5 1022.3 1022.5 0.0
26/08:30am 1.0 -0.8 0.9 99 0.0 CALM 0 7 0 4 1022.5 1022.7 0.0
26/08:00am -0.2 -2.2 -0.3 99 0.0 CALM 0 0 0 0 1022.5 1022.7 0.0
26/07:34am -0.5 -2.6 -0.6 99 0.0 CALM 0 0 0 0 1022.7 1022.9 0.0
26/07:30am -0.6 -2.7 -0.7 99 0.0 CALM 0 0 0 0 1022.6 1022.8 0.0
26/07:16am -0.4 -2.5 -0.5 99 0.0 CALM 0 0 0 0 1022.4 1022.6 0.0
26/07:00am -0.5 -2.6 -0.6 99 0.0 CALM 0 0 0 0 1022.2 1022.4 0.0
26/06:47am -0.7 -2.8 -0.8 99 0.0 CALM 0 0 0 0 1022.2 1022.4 0.0
26/06:30am -0.8 -2.9 -0.9 99 0.0 CALM 0 0 0 0 1021.9 1022.1 0.0
26/06:27am -0.5 -2.6 -0.6 99 0.0 CALM 0 0 0 0 1021.8 1022.0 0.0
26/06:05am -0.7 -2.8 -0.8 99 0.0 CALM 0 0 0 0 1021.7 1021.9 0.0
26/06:00am -0.6 -2.7 -0.7 99 0.0 CALM 0 0 0 0 1021.7 1021.9 0.0
26/05:30am -0.4 -2.5 -0.5 99 0.0 CALM 0 0 0 0 1021.3 1021.5 0.0
26/05:29am -0.4 -2.5 -0.5 99 0.0 CALM 0 0 0 0 1021.3 1021.5 0.0
26/05:18am -0.4 -2.5 -0.5 99 0.0 CALM 0 0 0 0 1021.2 1021.4 0.0
26/05:00am -0.5 -2.6 -0.6 99 0.0 CALM 0 0 0 0 1021.3 1021.5 0.0
26/04:47am -0.1 -2.1 -0.2 99 0.0 CALM 0 0 0 0 1021.1 1021.3 0.0
26/04:30am -0.3 -2.3 -0.4 99 0.0 CALM 0 0 0 0 1021.2 1021.4 0.0
26/04:06am -0.2 -2.2 -0.3 99 0.0 CALM 0 0 0 0 1021.1 1021.3 0.0
26/04:03am -0.2 -2.2 -0.3 99 0.0 CALM 0 0 0 0 1021.1 1021.3 0.0
26/04:00am 0.0 -2.0 -0.1 99 0.0 CALM 0 0 0 0 1021.2 1021.4 0.0
26/03:39am 0.2 -1.8 0.1 99 0.0 CALM 0 0 0 0 1021.1 1021.3 0.0
26/03:30am 0.1 -1.9 0.0 99 0.0 CALM 0 0 0 0 1021.4 1021.6 0.0
26/03:00am 0.3 -1.7 0.2 99 0.0 CALM 0 0 0 0 1021.5 1021.7 0.0
26/02:53am 0.5 -1.4 0.4 99 0.0 CALM 0 0 0 0 1021.5 1021.7 0.0
26/02:42am 0.6 -1.3 0.5 99 0.0 CALM 0 0 0 0 1021.6 1021.8 0.0
26/02:32am 0.4 -1.5 0.3 99 0.0 CALM 0 0 0 0 1021.7 1021.9 0.0
26/02:30am 0.5 -1.4 0.4 99 0.0 CALM 0 0 0 0 1021.6 1021.8 0.0
26/02:24am 0.4 -1.5 0.3 99 0.0 CALM 0 0 0 0 1021.6 1021.8 0.0
26/02:11am 0.5 -1.4 0.4 99 0.0 CALM 0 0 0 0 1021.6 1021.8 0.0
26/02:05am 0.4 -1.5 0.3 99 0.0 CALM 0 0 0 0 1021.7 1021.9 0.0
26/02:00am 0.5 -1.4 0.4 99 0.0 CALM 0 0 0 0 1021.7 1021.9 0.0
26/01:54am 0.6 -1.3 0.5 99 0.0 CALM 0 0 0 0 1021.5 1021.7 0.0
26/01:30am 1.0 -0.8 0.9 99 0.0 CALM 0 0 0 0 1021.8 1022.0 0.0
26/01:29am 1.0 -0.8 0.9 99 0.0 CALM 0 0 0 0 1021.8 1022.0 0.0
26/01:00am 1.0 -0.8 0.9 99 0.0 CALM 0 0 0 0 1022.1 1022.3 0.0
26/12:55am 1.3 -0.5 1.2 99 0.0 CALM 0 0 0 0 1022.0 1022.2 0.0
26/12:30am 1.5 -0.3 1.4 99 0.0 CALM 0 0 0 0 1022.3 1022.5 0.0
26/12:00am 2.1 0.4 2.0 99 0.0 CALM 0 0 0 0 1022.7 1022.9 0.0
 
Date/Time
EST
Temp
°C
App
Temp
°C
Dew
Point
°C
Rel
Hum
%
Delta-T
°C
Wind Press
QNH
hPa
Press
MSL
hPa
Rain since
9am
mm
Dir  Spd
km/h
Gust
km/h
Spd
kts
Gust
kts
25/11:30pm 2.1 0.4 2.0 99 0.0 CALM 0 0 0 0 1022.8 1023.0 0.0
25/11:00pm 2.0 0.3 1.9 99 0.0 CALM 0 0 0 0 1022.9 1023.1 0.0
25/10:59pm 2.2 0.5 2.1 99 0.0 CALM 0 0 0 0 1022.9 1023.1 0.0
25/10:39pm 2.2 0.5 2.1 99 0.0 CALM 0 0 0 0 1022.8 1023.0 0.0
25/10:30pm 2.4 0.8 2.3 99 0.0 CALM 0 0 0 0 1022.7 1022.9 0.0
25/10:00pm 3.0 1.5 2.9 99 0.0 CALM 0 0 0 0 1022.7 1022.9 0.0
25/09:30pm 3.4 2.0 3.3 99 0.0 CALM 0 0 0 0 1022.7 1022.9 0.0
25/09:00pm 3.5 2.1 3.4 99 0.0 CALM 0 0 0 0 1022.9 1023.1 0.0
25/08:30pm 4.1 2.8 4.0 99 0.0 CALM 0 0 0 0 1022.9 1023.1 0.0
25/08:00pm 4.5 3.2 4.2 98 0.1 CALM 0 0 0 0 1023.0 1023.2 0.0
25/07:30pm 5.5 4.4 5.1 97 0.2 CALM 0 0 0 0 1022.9 1023.1 0.0
25/07:00pm 6.1 5.0 4.9 92 0.5 CALM 0 0 0 0 1022.9 1023.1 0.0
25/06:30pm 7.3 6.2 5.3 87 0.9 CALM 0 0 0 0 1022.8 1023.0 0.0
25/06:00pm 7.6 6.5 5.2 85 1.1 CALM 0 0 0 0 1022.9 1023.1 0.0
25/05:30pm 8.6 7.6 5.4 80 1.4 CALM 0 0 0 0 1022.7 1022.9 0.0
25/05:00pm 9.0 6.6 5.2 77 1.7 SSW 7 11 4 6 1022.8 1023.0 0.0
25/04:30pm 9.7 6.7 4.1 68 2.5 SW 9 13 5 7 1022.7 1022.9 0.0
25/04:00pm 9.9 7.0 4.5 69 2.4 SSW 9 13 5 7 1022.6 1022.8 0.0
25/03:30pm 9.6 6.7 4.6 71 2.2 S 9 11 5 6 1022.6 1022.8 0.0
25/03:00pm 9.5 6.6 4.5 71 2.2 SW 9 15 5 8 1022.6 1022.8 0.0
25/02:30pm 9.3 6.6 3.9 69 2.4 SSW 7 11 4 6 1022.7 1022.9 0.0
25/02:00pm 9.3 5.8 3.7 68 2.4 SW 11 17 6 9 1022.8 1023.0 0.0

Other Formats:

Comma delimited format used in spreadsheet applications
http://www.bom.gov.au/fwo/IDV60801/IDV60801.94875.axf

JavaScript Object Notation format (JSON) in row-major order
http://www.bom.gov.au/fwo/IDV60801/IDV60801.94875.json